Time;durP1;ratioP1;P1;durP2;ratioP2;P2;SDS_P1;SDS_P2;PMS_P1;PMS_P2;Temp;Humidity;BMP_temperature;BMP_pressure;BME280_temperature;BME280_humidity;BME280_pressure;Samples;Min_cycle;Max_cycle;Signal;HPM_P1;HPM_P2
2021/03/01 00:01:29;;;;;;;67.05;33.75;;;;;;;4.40;77.40;100533.00;4178667;83;21864;-87
2021/03/01 00:07:30;;;;;;;66.90;32.70;;;;;;;4.42;77.49;100545.69;4181980;83;21345;-87
2021/03/01 00:13:32;;;;;;;76.85;38.85;;;;;;;4.39;77.46;100555.23;4165517;83;21199;-87
2021/03/01 00:19:34;;;;;;;72.10;36.70;;;;;;;4.37;77.43;100541.73;4167735;83;21232;-87
2021/03/01 00:25:38;;;;;;;59.45;32.42;;;;;;;4.26;77.77;100551.92;4114778;85;21766;-87
2021/03/01 00:31:39;;;;;;;47.30;25.45;;;;;;;4.15;77.71;100568.66;4175171;83;21797;-87
2021/03/01 00:37:41;;;;;;;36.70;21.52;;;;;;;4.06;77.85;100594.25;4173338;83;21205;-86
2021/03/01 00:43:43;;;;;;;46.05;25.35;;;;;;;4.02;78.16;100599.20;4176802;83;21259;-86
2021/03/01 00:49:45;;;;;;;43.50;23.45;;;;;;;3.95;78.26;100585.19;4172211;83;22397;-88
2021/03/01 00:55:47;;;;;;;42.95;21.85;;;;;;;3.87;78.67;100602.92;4114888;85;21821;-86
2021/03/01 01:01:50;;;;;;;38.08;22.60;;;;;;;3.81;79.53;100612.22;4200746;83;21750;-86
2021/03/01 01:07:52;;;;;;;41.75;21.80;;;;;;;3.69;79.22;100606.42;4246146;82;21169;-86
2021/03/01 01:13:54;;;;;;;39.18;21.33;;;;;;;3.59;78.85;100612.50;4248149;82;21724;-86
2021/03/01 01:19:56;;;;;;;39.18;22.25;;;;;;;3.55;79.09;100604.17;4213278;83;21373;-87
2021/03/01 01:25:57;;;;;;;41.60;21.62;;;;;;;3.49;78.91;100613.45;4126143;85;21607;-89
2021/03/01 01:31:59;;;;;;;39.40;20.52;;;;;;;3.47;78.76;100619.70;4157409;83;21690;-88
2021/03/01 01:38:01;;;;;;;41.30;20.08;;;;;;;3.45;78.78;100617.00;4181054;84;21184;-87
2021/03/01 01:44:03;;;;;;;41.37;23.62;;;;;;;3.43;78.71;100621.35;4174314;84;21511;-88
2021/03/01 01:50:06;;;;;;;37.90;20.15;;;;;;;3.44;79.12;100636.52;4164162;84;22448;-87
2021/03/01 01:56:08;;;;;;;37.73;21.05;;;;;;;3.33;79.14;100639.62;4101802;85;21379;-87
2021/03/01 02:02:11;;;;;;;44.05;22.05;;;;;;;3.23;78.98;100646.76;4098922;85;21384;-87
2021/03/01 02:08:44;;;;;;;40.95;21.37;;;;;;;3.20;78.87;100641.92;4172034;84;21205;-87
2021/03/01 02:15:10;;;;;;;51.53;23.30;;;;;;;3.15;78.92;100638.45;4167705;84;21354;-88
2021/03/01 02:21:13;;;;;;;42.17;22.70;;;;;;;3.17;79.14;100638.44;4101168;84;21380;-87
2021/03/01 02:27:25;;;;;;;39.48;20.72;;;;;;;3.12;79.13;100649.84;4174531;84;21216;-87
2021/03/01 02:33:32;;;;;;;43.52;22.48;;;;;;;3.13;79.24;100647.42;4171702;84;21742;-86
2021/03/01 02:39:39;;;;;;;45.67;22.35;;;;;;;3.14;79.22;100648.48;4173309;84;21346;-88
2021/03/01 02:45:44;;;;;;;43.65;22.35;;;;;;;3.20;79.29;100649.23;4174586;84;21232;-86
2021/03/01 02:51:50;;;;;;;42.30;22.60;;;;;;;3.28;79.21;100641.84;4174380;84;21195;-87
2021/03/01 02:57:54;;;;;;;43.75;22.37;;;;;;;3.34;79.19;100647.45;4175217;84;21216;-89
2021/03/01 03:03:57;;;;;;;43.65;22.52;;;;;;;3.40;79.13;100644.16;4171992;84;21871;-87
2021/03/01 03:10:00;;;;;;;47.08;24.00;;;;;;;3.36;79.07;100644.45;4172938;84;22024;-86
2021/03/01 03:16:03;;;;;;;50.28;25.00;;;;;;;3.31;79.07;100645.32;4166517;84;65561;-87
2021/03/01 03:22:04;;;;;;;47.53;26.12;;;;;;;3.29;79.17;100648.06;4133390;84;21199;-87
2021/03/01 03:28:07;;;;;;;48.87;25.37;;;;;;;3.28;79.18;100653.20;4062079;86;21242;-87
2021/03/01 03:34:09;;;;;;;54.85;27.02;;;;;;;3.25;79.33;100654.59;4077305;86;21230;-86
2021/03/01 03:40:14;;;;;;;58.55;27.65;;;;;;;3.29;79.41;100657.54;4105533;84;21282;-88
2021/03/01 03:46:16;;;;;;;55.12;26.15;;;;;;;3.25;79.28;100650.53;4077059;86;22013;-87
2021/03/01 03:52:21;;;;;;;58.85;26.70;;;;;;;3.24;79.43;100657.05;4095452;84;21666;-86
2021/03/01 03:58:28;;;;;;;59.42;29.87;;;;;;;3.29;79.50;100656.97;4105249;84;22435;-86
2021/03/01 04:04:32;;;;;;;69.15;30.90;;;;;;;3.26;79.54;100656.19;4078485;86;22388;-86
2021/03/01 04:10:35;;;;;;;54.55;27.13;;;;;;;3.28;79.55;100662.67;4077279;86;21218;-87
2021/03/01 04:16:37;;;;;;;60.80;27.87;;;;;;;3.24;79.62;100654.34;4101073;86;21234;-87
2021/03/01 04:22:41;;;;;;;58.73;27.85;;;;;;;3.21;79.65;100663.03;4096130;84;21187;-85
2021/03/01 04:28:43;;;;;;;55.98;27.80;;;;;;;3.19;79.80;100664.65;4126655;84;21235;-87
2021/03/01 04:34:45;;;;;;;54.30;27.05;;;;;;;3.19;79.81;100666.00;4154170;84;21708;-86
2021/03/01 04:40:52;;;;;;;62.48;29.37;;;;;;;3.23;79.89;100672.22;4154487;84;21246;-86
2021/03/01 04:46:55;;;;;;;60.92;28.70;;;;;;;3.19;79.95;100671.41;4152187;84;21678;-87
2021/03/01 04:52:57;;;;;;;59.27;29.18;;;;;;;3.14;79.97;100668.78;4157479;84;21273;-86
2021/03/01 04:59:01;;;;;;;57.58;29.70;;;;;;;3.13;80.18;100667.72;4148816;84;21701;-87
2021/03/01 05:05:06;;;;;;;72.85;31.05;;;;;;;3.13;80.09;100671.77;4110045;84;36624;-87
2021/03/01 05:11:10;;;;;;;59.70;29.63;;;;;;;3.12;80.21;100677.72;4141461;85;21220;-86
2021/03/01 05:17:12;;;;;;;59.80;30.62;;;;;;;3.09;80.26;100683.70;4142007;84;21200;-86
2021/03/01 05:23:14;;;;;;;61.58;29.42;;;;;;;3.06;80.46;100685.63;4062217;85;21371;-87
2021/03/01 05:29:17;;;;;;;64.03;31.60;;;;;;;3.08;80.56;100694.28;4006647;87;21264;-88
2021/03/01 05:35:18;;;;;;;59.80;31.30;;;;;;;3.15;80.53;100699.33;3999254;87;21258;-86
2021/03/01 05:41:22;;;;;;;67.17;32.17;;;;;;;3.15;80.57;100706.91;4059394;86;21227;-87
2021/03/01 05:47:25;;;;;;;69.00;32.98;;;;;;;3.14;80.64;100709.91;3996258;87;21682;-86
2021/03/01 05:53:34;;;;;;;65.60;33.05;;;;;;;3.15;80.71;100712.86;4038441;87;21703;-86
2021/03/01 05:59:36;;;;;;;67.47;32.70;;;;;;;3.19;80.67;100716.06;4054977;86;21208;-87
2021/03/01 06:05:38;;;;;;;69.50;33.95;;;;;;;3.20;80.73;100708.77;4069222;85;21339;-86
2021/03/01 06:11:40;;;;;;;69.77;31.90;;;;;;;3.23;80.81;100718.48;4068701;85;21247;-87
2021/03/01 06:17:41;;;;;;;62.33;30.92;;;;;;;3.24;80.87;100735.53;4071161;85;21999;-87
2021/03/01 06:23:45;;;;;;;73.92;34.50;;;;;;;3.29;80.92;100738.73;4066688;86;21383;-86
2021/03/01 06:30:09;;;;;;;67.95;32.63;;;;;;;3.37;80.95;100753.02;4114471;85;21241;-87
2021/03/01 06:36:11;;;;;;;72.67;33.80;;;;;;;3.38;80.87;100751.91;4126545;85;21403;-86
2021/03/01 06:42:25;;;;;;;76.12;35.03;;;;;;;3.41;81.02;100758.11;4127364;84;21788;-86
2021/03/01 06:48:30;;;;;;;68.40;33.13;;;;;;;3.43;80.93;100759.42;4124452;85;21229;-86
2021/03/01 06:54:32;;;;;;;69.77;33.67;;;;;;;3.47;80.99;100756.95;4124685;85;21205;-86
2021/03/01 07:00:33;;;;;;;73.35;33.80;;;;;;;3.56;80.97;100768.77;4125245;85;21221;-88
2021/03/01 07:06:35;;;;;;;69.25;34.50;;;;;;;3.53;81.07;100776.12;4123205;85;21685;-87
2021/03/01 07:12:46;;;;;;;71.45;33.05;;;;;;;3.61;81.25;100778.20;4117428;85;21237;-86
2021/03/01 07:18:50;;;;;;;63.17;31.82;;;;;;;3.66;81.16;100784.94;4122674;85;21387;-87
2021/03/01 07:24:53;;;;;;;76.50;34.40;;;;;;;3.66;81.03;100787.64;4099712;85;21230;-87
2021/03/01 07:30:54;;;;;;;73.57;36.00;;;;;;;3.76;81.12;100794.33;4167131;84;21196;-86
2021/03/01 07:36:58;;;;;;;70.65;33.28;;;;;;;3.76;81.08;100800.53;4161567;84;21228;-87
2021/03/01 07:43:02;;;;;;;65.87;32.65;;;;;;;3.79;81.13;100797.81;4164136;84;21712;-86
2021/03/01 07:49:04;;;;;;;69.58;32.08;;;;;;;3.85;81.02;100807.50;4157938;84;21662;-87
2021/03/01 07:55:11;;;;;;;68.37;32.58;;;;;;;3.91;81.10;100819.36;4160229;84;21247;-86
2021/03/01 08:01:14;;;;;;;;;;;;;;;3.99;81.08;100824.69;4166567;84;21219;-86
2021/03/01 08:07:16;;;;;;;69.65;32.42;;;;;;;4.02;81.14;100828.99;4161984;84;20218;-87
2021/03/01 08:13:23;;;;;;;68.72;32.38;;;;;;;4.12;81.14;100834.28;4161134;84;21637;-87
2021/03/01 08:19:41;;;;;;;59.38;27.90;;;;;;;4.25;81.12;100834.14;4151084;85;21655;-88
2021/03/01 08:25:50;;;;;;;61.53;31.50;;;;;;;4.32;81.00;100838.68;4138938;84;21230;-87
2021/03/01 08:31:56;;;;;;;59.70;28.35;;;;;;;4.46;80.98;100842.30;4078400;86;21234;-87
2021/03/01 08:37:58;;;;;;;68.25;30.27;;;;;;;4.46;80.83;100843.66;4043830;86;21232;-88
2021/03/01 08:44:03;;;;;;;73.90;31.68;;;;;;;4.41;80.83;100843.72;4092572;85;31450;-87
2021/03/01 08:50:05;;;;;;;58.58;27.02;;;;;;;4.45;80.93;100849.63;4112425;85;21185;-86
2021/03/01 08:56:21;;;;;;;63.83;27.87;;;;;;;4.60;81.07;100849.42;4112772;85;21230;-86
2021/03/01 09:02:23;;;;;;;45.30;22.50;;;;;;;4.75;80.71;100853.85;4112744;85;21250;-86
2021/03/01 09:08:31;;;;;;;39.30;19.52;;;;;;;4.87;80.52;100862.36;4113201;85;21190;-87
2021/03/01 09:14:33;;;;;;;47.35;21.85;;;;;;;4.83;80.38;100869.48;4113932;85;21784;-88
2021/03/01 09:20:43;;;;;;;53.00;25.15;;;;;;;4.82;80.25;100863.24;4089996;85;25719;-88
2021/03/01 09:26:46;;;;;;;48.73;25.80;;;;;;;4.87;80.31;100868.36;4152934;84;21278;-86
2021/03/01 09:33:06;;;;;;;49.88;24.70;;;;;;;4.91;80.07;100881.05;4134350;84;21341;-87
2021/03/01 09:39:09;;;;;;;53.38;24.63;;;;;;;4.98;80.09;100874.69;4153540;84;21218;-86
2021/03/01 09:45:13;;;;;;;40.73;19.45;;;;;;;5.08;80.04;100884.06;4155146;84;21194;-86
2021/03/01 09:51:16;;;;;;;43.78;21.68;;;;;;;5.14;79.68;100882.89;4155303;84;21657;-86
2021/03/01 09:57:18;;;;;;;40.67;20.08;;;;;;;5.24;79.77;100879.22;4134481;84;21206;-87
2021/03/01 10:03:19;;;;;;;52.03;24.25;;;;;;;5.23;79.50;100889.83;4152540;84;21223;-87
2021/03/01 10:09:21;;;;;;;42.43;20.77;;;;;;;5.23;79.37;100885.77;4155195;84;21221;-87
2021/03/01 10:15:23;;;;;;;44.53;22.80;;;;;;;5.27;79.41;100891.66;4153765;84;21223;-86
2021/03/01 10:21:32;;;;;;;46.77;22.35;;;;;;;5.25;79.19;100891.68;4154085;84;21207;-89
2021/03/01 10:27:37;;;;;;;47.90;23.12;;;;;;;5.29;79.21;100896.26;4112574;85;21812;-89
2021/03/01 10:33:57;;;;;;;51.63;23.50;;;;;;;5.27;79.02;100903.06;4109370;85;21217;-87
2021/03/01 10:39:59;;;;;;;50.08;23.90;;;;;;;5.33;79.16;100902.70;4113862;85;21158;-88
2021/03/01 10:46:00;;;;;;;55.78;26.30;;;;;;;5.43;78.98;100905.81;4114110;85;21466;-87
2021/03/01 10:52:02;;;;;;;42.78;20.65;;;;;;;5.44;78.81;100911.49;4109477;85;21187;-88
2021/03/01 10:58:04;;;;;;;39.33;19.85;;;;;;;5.48;78.70;100912.54;4111888;85;21191;-86
2021/03/01 11:04:06;;;;;;;30.68;16.65;;;;;;;5.40;78.37;100905.88;4110467;85;21234;-87
2021/03/01 11:10:09;;;;;;;48.55;23.42;;;;;;;5.40;78.41;100905.05;4113433;85;21242;-87
2021/03/01 11:16:10;;;;;;;51.92;22.27;;;;;;;5.39;78.21;100903.42;4112091;85;21782;-87
2021/03/01 11:22:12;;;;;;;47.35;21.87;;;;;;;5.37;78.43;100911.08;4114200;85;21222;-87
2021/03/01 11:28:14;;;;;;;44.05;22.77;;;;;;;5.34;78.27;100912.45;4148320;84;21171;-86
2021/03/01 11:34:15;;;;;;;52.50;23.57;;;;;;;5.37;78.21;100912.44;4149958;84;21234;-87
2021/03/01 11:40:18;;;;;;;45.43;22.05;;;;;;;5.46;78.30;100910.12;4150899;84;21232;-87
2021/03/01 11:46:20;;;;;;;38.60;20.10;;;;;;;5.66;78.37;100899.47;4146178;84;21757;-86
2021/03/01 11:52:22;;;;;;;38.55;19.17;;;;;;;5.98;78.00;100903.02;4148840;84;21226;-88
2021/03/01 11:58:24;;;;;;;36.60;18.00;;;;;;;6.20;77.53;100890.92;4149328;84;21356;-87
2021/03/01 12:04:25;;;;;;;38.17;18.95;;;;;;;6.46;77.33;100886.36;4162355;84;21210;-88
2021/03/01 12:10:27;;;;;;;38.33;18.50;;;;;;;6.58;77.05;100888.83;4167777;84;21153;-86
2021/03/01 12:16:29;;;;;;;35.65;17.50;;;;;;;6.63;76.61;100894.17;4148778;84;21732;-87
2021/03/01 12:22:31;;;;;;;39.70;19.32;;;;;;;6.55;76.10;100896.23;4163237;84;21687;-88
2021/03/01 12:28:32;;;;;;;44.18;18.10;;;;;;;6.32;75.97;100910.30;4167616;84;21221;-86
2021/03/01 12:34:37;;;;;;;40.78;19.20;;;;;;;6.14;75.88;100904.91;4166640;84;21690;-88
2021/03/01 12:40:38;;;;;;;39.13;19.60;;;;;;;6.11;76.21;100902.25;4168875;84;21401;-87
2021/03/01 12:46:40;;;;;;;46.53;21.17;;;;;;;6.19;76.20;100896.12;4150485;84;21368;-87
2021/03/01 12:52:42;;;;;;;37.20;19.70;;;;;;;6.31;76.22;100895.64;4169183;84;21198;-86
2021/03/01 12:58:43;;;;;;;38.38;18.73;;;;;;;6.33;75.85;100904.28;4152875;84;21214;-86
2021/03/01 13:04:45;;;;;;;43.58;18.87;;;;;;;6.30;75.53;100904.89;4150849;84;21275;-87
2021/03/01 13:10:47;;;;;;;44.30;20.45;;;;;;;6.29;75.68;100900.02;4148650;84;21174;-87
2021/03/01 13:16:49;;;;;;;41.42;20.77;;;;;;;6.34;75.52;100893.10;4150311;84;21218;-87
2021/03/01 13:22:50;;;;;;;41.30;20.23;;;;;;;6.33;75.10;100883.89;4145840;84;21253;-88
2021/03/01 13:28:52;;;;;;;38.00;19.42;;;;;;;6.20;75.34;100891.50;4122219;85;29505;-87
2021/03/01 13:34:55;;;;;;;42.67;19.73;;;;;;;6.28;75.33;100878.53;4152544;85;21222;-87
2021/03/01 13:40:56;;;;;;;44.65;21.00;;;;;;;6.41;75.37;100873.66;4151360;85;21194;-87
2021/03/01 13:46:58;;;;;;;43.50;21.10;;;;;;;6.56;75.01;100868.48;4149063;85;21820;-87
2021/03/01 13:52:59;;;;;;;43.38;20.72;;;;;;;6.53;74.91;100870.45;4030612;87;21244;-87
2021/03/01 13:59:01;;;;;;;41.35;19.80;;;;;;;6.65;74.85;100861.22;4083080;85;21698;-87
2021/03/01 14:05:07;;;;;;;43.75;20.72;;;;;;;6.73;74.43;100864.05;4092410;85;21204;-86
2021/03/01 14:11:10;;;;;;;45.37;21.90;;;;;;;6.52;74.39;100861.47;4025388;88;21232;-88
2021/03/01 14:17:12;;;;;;;50.83;24.67;;;;;;;6.57;74.44;100853.76;4076253;86;21698;-87
2021/03/01 14:23:13;;;;;;;41.20;21.40;;;;;;;6.66;74.31;100857.37;4089612;86;21297;-87
2021/03/01 14:29:16;;;;;;;43.05;19.35;;;;;;;6.66;74.11;100848.66;4074904;86;21271;-90
2021/03/01 14:35:20;;;;;;;41.60;19.73;;;;;;;6.73;73.88;100848.25;4015607;87;33335;-86
2021/03/01 14:41:22;;;;;;;33.73;18.07;;;;;;;6.77;73.83;100837.00;4042658;87;21247;-87
2021/03/01 14:47:25;;;;;;;29.12;15.53;;;;;;;6.80;73.45;100840.47;4042834;87;21362;-86
2021/03/01 14:53:28;;;;;;;36.20;17.80;;;;;;;6.75;72.82;100835.94;4041883;87;21865;-86
2021/03/01 14:59:30;;;;;;;32.20;16.77;;;;;;;6.62;72.83;100835.97;4040782;87;21189;-87
2021/03/01 15:05:32;;;;;;;31.17;15.38;;;;;;;6.42;72.57;100831.77;4041343;87;21946;-87
2021/03/01 15:11:34;;;;;;;39.65;17.57;;;;;;;6.37;72.45;100827.22;4044626;87;21667;-87
2021/03/01 15:17:35;;;;;;;40.08;18.27;;;;;;;6.34;72.13;100831.91;4064432;87;21220;-87
2021/03/01 15:23:37;;;;;;;35.20;17.25;;;;;;;6.29;72.08;100826.59;4109567;85;21422;-87
2021/03/01 15:29:39;;;;;;;35.50;17.30;;;;;;;6.28;72.04;100814.62;4112835;84;40080;-88
2021/03/01 15:35:41;;;;;;;34.67;17.52;;;;;;;6.23;71.77;100815.53;4136258;84;21224;-88
2021/03/01 15:41:42;;;;;;;36.53;18.62;;;;;;;6.21;71.82;100821.84;4139002;84;21202;-87
2021/03/01 15:47:44;;;;;;;36.60;17.62;;;;;;;6.08;71.65;100824.00;4134465;84;21139;-87
2021/03/01 15:53:46;;;;;;;53.83;20.20;;;;;;;5.89;71.60;100840.13;4129829;84;21199;-86
2021/03/01 15:59:48;;;;;;;42.60;17.48;;;;;;;5.75;71.49;100843.33;4120506;85;21362;-86
2021/03/01 16:05:49;;;;;;;30.97;15.48;;;;;;;5.59;71.43;100850.16;4118683;81;77421;-89
2021/03/01 16:11:51;;;;;;;35.95;18.23;;;;;;;5.57;71.62;100849.63;4113552;85;21200;-88
2021/03/01 16:17:53;;;;;;;78.07;23.38;;;;;;;5.54;71.55;100843.44;4113931;85;21211;-87
2021/03/01 16:23:56;;;;;;;39.23;17.70;;;;;;;5.46;71.59;100843.57;4112523;85;21198;-87
2021/03/01 16:29:58;;;;;;;36.10;16.55;;;;;;;5.38;71.55;100848.31;4111799;85;21229;-87
2021/03/01 16:36:00;;;;;;;43.45;18.40;;;;;;;5.29;71.52;100843.30;4114152;85;21281;-87
2021/03/01 16:42:02;;;;;;;45.90;18.55;;;;;;;5.17;71.73;100851.08;4108758;85;21277;-87
2021/03/01 16:48:06;;;;;;;37.30;17.65;;;;;;;5.12;71.64;100851.72;4111861;85;21232;-87
2021/03/01 16:54:12;;;;;;;40.38;18.65;;;;;;;5.07;71.64;100856.67;4109746;85;21371;-88
2021/03/01 17:00:16;;;;;;;41.15;19.10;;;;;;;5.03;71.49;100852.12;4108748;85;21355;-88
2021/03/01 17:06:22;;;;;;;66.02;24.02;;;;;;;4.93;71.59;100857.69;4112312;85;21206;-87
2021/03/01 17:12:44;;;;;;;103.50;38.05;;;;;;;4.88;71.67;100871.31;4084543;84;28380;-88
2021/03/01 17:18:48;;;;;;;56.75;24.25;;;;;;;4.83;71.97;100867.59;4047838;86;21837;-86
2021/03/01 17:24:54;;;;;;;65.28;24.12;;;;;;;4.65;71.78;100860.21;4179646;83;21215;-87
2021/03/01 17:30:58;;;;;;;66.92;26.65;;;;;;;4.63;72.06;100858.36;4188786;83;22121;-87
2021/03/01 17:37:00;;;;;;;73.45;31.25;;;;;;;4.63;72.83;100854.83;4185314;83;21262;-86
2021/03/01 17:43:02;;;;;;;66.28;29.18;;;;;;;4.62;72.86;100864.05;4184987;83;21598;-88
2021/03/01 17:49:08;;;;;;;70.32;28.87;;;;;;;4.65;72.75;100862.14;4186724;83;21832;-88
2021/03/01 17:55:26;;;;;;;58.90;25.48;;;;;;;4.54;72.58;100857.94;4184180;83;21348;-87
2021/03/01 18:01:31;;;;;;;58.25;26.82;;;;;;;4.37;72.66;100863.03;4199398;83;29930;-88
2021/03/01 18:07:42;;;;;;;62.33;27.07;;;;;;;4.18;72.95;100857.52;4058861;84;9999558;-89
2021/03/01 18:13:48;;;;;;;57.05;26.57;;;;;;;3.98;72.98;100853.67;4169818;84;21199;-87
2021/03/01 18:19:53;;;;;;;65.87;26.90;;;;;;;3.86;73.24;100849.20;4174131;84;21219;-87
2021/03/01 18:25:55;;;;;;;89.50;39.98;;;;;;;3.85;73.09;100837.30;4174596;84;21778;-86
2021/03/01 18:32:03;;;;;;;83.90;36.48;;;;;;;3.77;73.59;100836.56;4107616;85;21211;-86
2021/03/01 18:38:34;;;;;;;96.45;38.95;;;;;;;3.64;73.84;100842.63;4181365;84;21394;-86
2021/03/01 18:44:38;;;;;;;86.85;37.23;;;;;;;3.55;73.95;100851.94;4179038;84;21674;-86
2021/03/01 18:50:40;;;;;;;83.82;36.20;;;;;;;3.48;74.09;100861.48;4182662;84;21733;-87
2021/03/01 18:56:41;;;;;;;88.17;39.15;;;;;;;3.45;74.32;100859.31;4185493;84;21408;-88
2021/03/01 19:02:44;;;;;;;84.83;36.90;;;;;;;3.33;74.56;100862.40;4110397;85;21379;-86
2021/03/01 19:08:46;;;;;;;94.85;40.35;;;;;;;3.23;74.73;100871.14;4179255;84;21739;-86
2021/03/01 19:14:47;;;;;;;132.12;49.77;;;;;;;3.19;75.01;100873.59;4181161;84;21668;-86
2021/03/01 19:20:52;;;;;;;113.97;44.27;;;;;;;3.20;75.06;100878.73;4182258;84;21214;-86
2021/03/01 19:26:53;;;;;;;97.85;44.60;;;;;;;3.06;74.99;100871.50;4097763;85;21366;-87
2021/03/01 19:32:55;;;;;;;148.50;52.88;;;;;;;3.05;75.68;100876.66;4087287;85;21829;-86
2021/03/01 19:38:56;;;;;;;101.25;44.42;;;;;;;2.99;75.86;100881.28;4039064;87;22169;-89
2021/03/01 19:44:58;;;;;;;111.20;45.30;;;;;;;2.98;76.11;100881.03;4081107;85;21220;-87
2021/03/01 19:51:00;;;;;;;131.78;49.50;;;;;;;3.02;76.34;100888.05;4151335;84;21875;-86
2021/03/01 19:57:02;;;;;;;119.50;47.70;;;;;;;2.99;76.36;100883.98;4155308;84;21678;-87
2021/03/01 20:03:05;;;;;;;103.65;43.63;;;;;;;3.00;76.48;100880.75;4159213;84;21788;-88
2021/03/01 20:09:08;;;;;;;106.32;44.83;;;;;;;2.90;76.20;100888.91;4155496;84;21234;-87
2021/03/01 20:15:10;;;;;;;110.72;47.60;;;;;;;2.92;76.42;100892.16;4154471;84;21396;-87
2021/03/01 20:21:12;;;;;;;123.50;48.98;;;;;;;2.99;76.79;100890.75;4156721;84;21201;-86
2021/03/01 20:27:14;;;;;;;93.70;39.73;;;;;;;2.98;76.65;100879.67;4154564;84;21370;-86
2021/03/01 20:33:17;;;;;;;99.50;41.45;;;;;;;2.84;76.81;100885.44;4155361;84;21263;-87
2021/03/01 20:39:18;;;;;;;81.30;37.10;;;;;;;2.78;77.05;100880.33;4151189;84;22026;-88
2021/03/01 20:45:20;;;;;;;87.50;38.53;;;;;;;2.66;77.06;100873.88;4155216;84;21246;-86
2021/03/01 20:51:21;;;;;;;92.08;38.05;;;;;;;2.63;76.95;100856.08;4156190;84;21800;-86
2021/03/01 20:57:23;;;;;;;101.55;40.80;;;;;;;2.40;76.74;100858.04;4154750;84;21254;-86
2021/03/01 21:03:25;;;;;;;104.15;43.65;;;;;;;2.17;77.19;100858.14;4152300;84;21808;-86
2021/03/01 21:09:30;;;;;;;104.30;42.20;;;;;;;1.96;77.06;100859.26;4152405;84;21239;-86
2021/03/01 21:15:32;;;;;;;111.68;45.92;;;;;;;1.75;77.48;100864.97;4155887;84;21191;-87
2021/03/01 21:21:34;;;;;;;116.17;50.35;;;;;;;1.63;77.39;100857.96;4153798;84;22246;-86
2021/03/01 21:27:42;;;;;;;126.47;50.80;;;;;;;1.45;77.63;100857.70;4164405;84;21224;-86
2021/03/01 21:33:49;;;;;;;128.15;54.35;;;;;;;1.32;77.62;100853.65;4180114;84;21210;-87
2021/03/01 21:39:50;;;;;;;;;;;;;;;1.20;77.56;100862.55;4183673;84;21674;-86
2021/03/01 21:45:52;;;;;;;112.28;50.55;;;;;;;0.81;77.77;100857.89;4179443;84;20201;-86
2021/03/01 21:52:03;;;;;;;126.97;54.35;;;;;;;0.61;77.65;100861.32;4181313;84;21276;-86
2021/03/01 21:58:06;;;;;;;122.37;52.33;;;;;;;0.48;78.08;100847.55;4111807;85;21180;-87
2021/03/01 22:04:11;;;;;;;113.10;46.65;;;;;;;0.33;78.06;100851.53;4180280;84;21257;-86
2021/03/01 22:10:15;;;;;;;122.70;51.73;;;;;;;0.19;78.37;100864.66;4162158;84;21197;-87
2021/03/01 22:16:18;;;;;;;100.07;42.85;;;;;;;0.09;78.55;100847.64;4181428;84;22052;-86
2021/03/01 22:22:20;;;;;;;105.52;46.73;;;;;;;0.00;78.65;100854.07;4101748;85;21251;-86
2021/03/01 22:28:35;;;;;;;101.45;43.35;;;;;;;-0.19;78.30;100860.39;4180766;84;21765;-86
2021/03/01 22:34:40;;;;;;;103.73;45.37;;;;;;;-0.43;78.52;100861.86;4177529;84;21705;-86
2021/03/01 22:40:43;;;;;;;112.93;46.13;;;;;;;-0.46;79.72;100869.62;4087923;85;22298;-85
2021/03/01 22:46:46;;;;;;;111.00;44.30;;;;;;;-0.49;79.52;100862.07;4180628;84;21194;-85
2021/03/01 22:52:48;;;;;;;127.50;50.77;;;;;;;-0.48;79.70;100863.68;4181593;84;21284;-86
2021/03/01 22:58:49;;;;;;;130.03;51.03;;;;;;;-0.42;79.66;100863.99;4181625;84;21332;-86
2021/03/01 23:04:51;;;;;;;131.43;54.42;;;;;;;-0.56;79.43;100867.66;4053472;86;21256;-86
2021/03/01 23:10:55;;;;;;;140.57;55.10;;;;;;;-0.69;79.41;100870.77;4059133;86;21191;-87
2021/03/01 23:16:58;;;;;;;163.27;62.73;;;;;;;-0.84;79.23;100888.13;4180715;84;21331;-85
2021/03/01 23:22:59;;;;;;;147.50;61.57;;;;;;;-0.90;79.85;100896.39;4110726;85;21362;-86
2021/03/01 23:29:02;;;;;;;158.83;64.07;;;;;;;-1.12;79.79;100889.72;4177458;84;21162;-86
2021/03/01 23:35:08;;;;;;;179.10;70.80;;;;;;;-1.10;80.46;100903.73;4177378;84;21238;-87
2021/03/01 23:41:11;;;;;;;174.47;66.10;;;;;;;-1.10;80.16;100909.62;4177997;84;21212;-86
2021/03/01 23:47:18;;;;;;;168.47;65.27;;;;;;;-1.25;80.08;100913.50;4178556;84;21348;-85
2021/03/01 23:53:22;;;;;;;171.40;69.10;;;;;;;-1.30;80.68;100914.78;4179532;84;22474;-86
2021/03/01 23:59:25;;;;;;;187.43;74.27;;;;;;;-1.37;80.49;100911.45;4175348;84;21221;-86
